sensor_id;sensor_type;location;lat;lon;timestamp;P1;durP1;ratioP1;P2;durP2;ratioP2
42616;SDS011;28250;52.320;0.360;2023-08-06T00:01:18;4.00;;;1.85;;
42616;SDS011;28250;52.320;0.360;2023-08-06T00:03:46;3.88;;;1.80;;
42616;SDS011;28250;52.320;0.360;2023-08-06T00:06:12;4.38;;;2.58;;
42616;SDS011;28250;52.320;0.360;2023-08-06T00:08:38;4.80;;;1.70;;
42616;SDS011;28250;52.320;0.360;2023-08-06T00:11:04;5.07;;;1.77;;
42616;SDS011;28250;52.320;0.360;2023-08-06T00:13:30;4.47;;;2.22;;
42616;SDS011;28250;52.320;0.360;2023-08-06T00:16:07;8.57;;;2.38;;
42616;SDS011;28250;52.320;0.360;2023-08-06T00:18:38;6.55;;;2.25;;
42616;SDS011;28250;52.320;0.360;2023-08-06T00:21:04;4.60;;;2.25;;
42616;SDS011;28250;52.320;0.360;2023-08-06T00:23:31;4.47;;;1.48;;
42616;SDS011;28250;52.320;0.360;2023-08-06T00:25:57;7.55;;;2.65;;
42616;SDS011;28250;52.320;0.360;2023-08-06T00:28:23;10.35;;;3.00;;
42616;SDS011;28250;52.320;0.360;2023-08-06T00:30:55;6.93;;;2.33;;
42616;SDS011;28250;52.320;0.360;2023-08-06T00:33:22;7.75;;;2.17;;
42616;SDS011;28250;52.320;0.360;2023-08-06T00:35:49;5.55;;;2.30;;
42616;SDS011;28250;52.320;0.360;2023-08-06T00:38:15;5.45;;;2.50;;
42616;SDS011;28250;52.320;0.360;2023-08-06T00:40:41;5.07;;;2.55;;
42616;SDS011;28250;52.320;0.360;2023-08-06T00:43:07;6.13;;;2.80;;
42616;SDS011;28250;52.320;0.360;2023-08-06T00:45:35;5.68;;;2.83;;
42616;SDS011;28250;52.320;0.360;2023-08-06T00:48:03;6.18;;;2.70;;
42616;SDS011;28250;52.320;0.360;2023-08-06T00:50:31;4.10;;;2.55;;
42616;SDS011;28250;52.320;0.360;2023-08-06T00:52:58;5.72;;;2.72;;
42616;SDS011;28250;52.320;0.360;2023-08-06T00:55:24;10.67;;;2.90;;
42616;SDS011;28250;52.320;0.360;2023-08-06T00:57:51;8.05;;;3.10;;
42616;SDS011;28250;52.320;0.360;2023-08-06T01:00:21;7.68;;;2.53;;
42616;SDS011;28250;52.320;0.360;2023-08-06T01:02:49;11.70;;;3.20;;
42616;SDS011;28250;52.320;0.360;2023-08-06T01:05:15;7.10;;;2.83;;
42616;SDS011;28250;52.320;0.360;2023-08-06T01:07:49;6.93;;;3.05;;
42616;SDS011;28250;52.320;0.360;2023-08-06T01:13:45;6.93;;;2.97;;
42616;SDS011;28250;52.320;0.360;2023-08-06T01:16:15;5.10;;;2.60;;
42616;SDS011;28250;52.320;0.360;2023-08-06T01:18:42;5.15;;;3.13;;
42616;SDS011;28250;52.320;0.360;2023-08-06T01:21:12;4.40;;;2.78;;
42616;SDS011;28250;52.320;0.360;2023-08-06T01:26:09;8.27;;;3.80;;
42616;SDS011;28250;52.320;0.360;2023-08-06T01:31:44;5.78;;;2.80;;
42616;SDS011;28250;52.320;0.360;2023-08-06T01:34:23;5.80;;;2.97;;
42616;SDS011;28250;52.320;0.360;2023-08-06T01:36:53;5.28;;;2.90;;
42616;SDS011;28250;52.320;0.360;2023-08-06T01:39:19;9.57;;;3.42;;
42616;SDS011;28250;52.320;0.360;2023-08-06T01:41:46;7.13;;;2.90;;
42616;SDS011;28250;52.320;0.360;2023-08-06T01:44:14;6.03;;;3.08;;
42616;SDS011;28250;52.320;0.360;2023-08-06T01:46:40;8.32;;;3.17;;
42616;SDS011;28250;52.320;0.360;2023-08-06T01:49:06;10.73;;;3.78;;
42616;SDS011;28250;52.320;0.360;2023-08-06T01:51:32;6.32;;;2.78;;
42616;SDS011;28250;52.320;0.360;2023-08-06T01:53:58;7.68;;;3.72;;
42616;SDS011;28250;52.320;0.360;2023-08-06T01:56:24;9.55;;;3.03;;
42616;SDS011;28250;52.320;0.360;2023-08-06T01:58:50;12.10;;;3.88;;
42616;SDS011;28250;52.320;0.360;2023-08-06T02:01:17;7.70;;;3.42;;
42616;SDS011;28250;52.320;0.360;2023-08-06T02:03:44;7.30;;;3.17;;
42616;SDS011;28250;52.320;0.360;2023-08-06T02:06:10;6.47;;;3.35;;
42616;SDS011;28250;52.320;0.360;2023-08-06T02:08:36;8.15;;;3.45;;
42616;SDS011;28250;52.320;0.360;2023-08-06T02:11:02;6.65;;;3.20;;
42616;SDS011;28250;52.320;0.360;2023-08-06T02:13:29;9.85;;;2.90;;
42616;SDS011;28250;52.320;0.360;2023-08-06T02:15:56;8.75;;;3.80;;
42616;SDS011;28250;52.320;0.360;2023-08-06T02:18:22;5.47;;;2.85;;
42616;SDS011;28250;52.320;0.360;2023-08-06T02:20:57;8.60;;;3.15;;
42616;SDS011;28250;52.320;0.360;2023-08-06T02:23:24;10.20;;;3.53;;
42616;SDS011;28250;52.320;0.360;2023-08-06T02:26:01;12.27;;;3.08;;
42616;SDS011;28250;52.320;0.360;2023-08-06T02:28:29;6.38;;;3.30;;
42616;SDS011;28250;52.320;0.360;2023-08-06T02:30:55;11.98;;;3.70;;
42616;SDS011;28250;52.320;0.360;2023-08-06T02:33:22;9.80;;;3.40;;
42616;SDS011;28250;52.320;0.360;2023-08-06T02:35:48;7.13;;;2.90;;
42616;SDS011;28250;52.320;0.360;2023-08-06T02:38:14;12.23;;;3.67;;
42616;SDS011;28250;52.320;0.360;2023-08-06T02:40:44;6.90;;;3.30;;
42616;SDS011;28250;52.320;0.360;2023-08-06T02:43:11;5.25;;;2.63;;
42616;SDS011;28250;52.320;0.360;2023-08-06T02:45:40;8.23;;;3.08;;
42616;SDS011;28250;52.320;0.360;2023-08-06T02:48:06;8.60;;;3.70;;
42616;SDS011;28250;52.320;0.360;2023-08-06T02:50:39;5.72;;;3.00;;
42616;SDS011;28250;52.320;0.360;2023-08-06T02:53:09;7.78;;;3.08;;
42616;SDS011;28250;52.320;0.360;2023-08-06T02:55:36;4.93;;;2.65;;
42616;SDS011;28250;52.320;0.360;2023-08-06T02:58:08;7.93;;;4.82;;
42616;SDS011;28250;52.320;0.360;2023-08-06T03:00:38;7.18;;;3.78;;
42616;SDS011;28250;52.320;0.360;2023-08-06T03:03:06;7.88;;;3.33;;
42616;SDS011;28250;52.320;0.360;2023-08-06T03:05:39;4.57;;;2.85;;
42616;SDS011;28250;52.320;0.360;2023-08-06T03:08:05;8.77;;;3.10;;
42616;SDS011;28250;52.320;0.360;2023-08-06T03:10:34;5.75;;;2.83;;
42616;SDS011;28250;52.320;0.360;2023-08-06T03:13:03;6.05;;;2.92;;
42616;SDS011;28250;52.320;0.360;2023-08-06T03:15:29;7.75;;;3.28;;
42616;SDS011;28250;52.320;0.360;2023-08-06T03:17:55;8.45;;;2.70;;
42616;SDS011;28250;52.320;0.360;2023-08-06T03:20:22;8.40;;;2.60;;
42616;SDS011;28250;52.320;0.360;2023-08-06T03:22:49;7.03;;;2.97;;
42616;SDS011;28250;52.320;0.360;2023-08-06T03:25:15;11.05;;;4.47;;
42616;SDS011;28250;52.320;0.360;2023-08-06T03:27:44;6.90;;;3.30;;
42616;SDS011;28250;52.320;0.360;2023-08-06T03:30:12;6.30;;;2.97;;
42616;SDS011;28250;52.320;0.360;2023-08-06T03:32:39;6.18;;;2.92;;
42616;SDS011;28250;52.320;0.360;2023-08-06T03:35:06;5.35;;;2.97;;
42616;SDS011;28250;52.320;0.360;2023-08-06T03:37:32;7.25;;;2.83;;
42616;SDS011;28250;52.320;0.360;2023-08-06T03:39:58;3.85;;;2.60;;
42616;SDS011;28250;52.320;0.360;2023-08-06T03:42:24;5.07;;;2.53;;
42616;SDS011;28250;52.320;0.360;2023-08-06T03:44:50;7.60;;;2.70;;
42616;SDS011;28250;52.320;0.360;2023-08-06T03:47:16;8.55;;;3.10;;
42616;SDS011;28250;52.320;0.360;2023-08-06T03:49:43;5.38;;;2.58;;
42616;SDS011;28250;52.320;0.360;2023-08-06T03:52:11;4.82;;;3.22;;
42616;SDS011;28250;52.320;0.360;2023-08-06T03:54:37;7.57;;;3.03;;
42616;SDS011;28250;52.320;0.360;2023-08-06T03:57:04;9.10;;;3.33;;
42616;SDS011;28250;52.320;0.360;2023-08-06T03:59:31;8.77;;;3.78;;
42616;SDS011;28250;52.320;0.360;2023-08-06T04:01:57;6.88;;;3.47;;
42616;SDS011;28250;52.320;0.360;2023-08-06T04:04:23;10.48;;;3.58;;
42616;SDS011;28250;52.320;0.360;2023-08-06T04:06:49;7.25;;;3.80;;
42616;SDS011;28250;52.320;0.360;2023-08-06T04:09:15;9.00;;;3.40;;
42616;SDS011;28250;52.320;0.360;2023-08-06T04:11:41;4.95;;;3.13;;
42616;SDS011;28250;52.320;0.360;2023-08-06T04:14:08;8.73;;;3.08;;
42616;SDS011;28250;52.320;0.360;2023-08-06T04:16:34;15.73;;;3.67;;
42616;SDS011;28250;52.320;0.360;2023-08-06T04:19:00;4.80;;;2.80;;
42616;SDS011;28250;52.320;0.360;2023-08-06T04:21:26;6.15;;;3.10;;
42616;SDS011;28250;52.320;0.360;2023-08-06T04:23:52;6.30;;;3.15;;
42616;SDS011;28250;52.320;0.360;2023-08-06T04:26:18;9.40;;;3.67;;
42616;SDS011;28250;52.320;0.360;2023-08-06T04:28:44;6.25;;;3.30;;
42616;SDS011;28250;52.320;0.360;2023-08-06T04:31:10;8.27;;;3.13;;
42616;SDS011;28250;52.320;0.360;2023-08-06T04:33:38;7.43;;;3.03;;
42616;SDS011;28250;52.320;0.360;2023-08-06T04:36:08;5.13;;;2.95;;
42616;SDS011;28250;52.320;0.360;2023-08-06T04:38:35;8.85;;;3.05;;
42616;SDS011;28250;52.320;0.360;2023-08-06T04:41:04;4.93;;;2.90;;
42616;SDS011;28250;52.320;0.360;2023-08-06T04:43:30;4.97;;;2.80;;
42616;SDS011;28250;52.320;0.360;2023-08-06T04:45:56;6.05;;;2.65;;
42616;SDS011;28250;52.320;0.360;2023-08-06T04:48:22;7.38;;;2.58;;
42616;SDS011;28250;52.320;0.360;2023-08-06T04:50:49;4.70;;;2.65;;
42616;SDS011;28250;52.320;0.360;2023-08-06T04:53:15;8.30;;;2.80;;
42616;SDS011;28250;52.320;0.360;2023-08-06T04:55:42;5.40;;;2.47;;
42616;SDS011;28250;52.320;0.360;2023-08-06T04:58:12;6.40;;;2.92;;
42616;SDS011;28250;52.320;0.360;2023-08-06T05:00:38;8.43;;;2.92;;
42616;SDS011;28250;52.320;0.360;2023-08-06T05:03:05;5.53;;;2.53;;
42616;SDS011;28250;52.320;0.360;2023-08-06T05:05:36;7.28;;;3.53;;
42616;SDS011;28250;52.320;0.360;2023-08-06T05:08:02;5.82;;;2.53;;
42616;SDS011;28250;52.320;0.360;2023-08-06T05:10:28;5.43;;;2.85;;
42616;SDS011;28250;52.320;0.360;2023-08-06T05:12:54;4.30;;;2.38;;
42616;SDS011;28250;52.320;0.360;2023-08-06T05:15:20;6.03;;;2.30;;
42616;SDS011;28250;52.320;0.360;2023-08-06T05:17:46;13.20;;;2.95;;
42616;SDS011;28250;52.320;0.360;2023-08-06T05:20:12;3.92;;;2.63;;
42616;SDS011;28250;52.320;0.360;2023-08-06T05:22:38;6.65;;;2.33;;
42616;SDS011;28250;52.320;0.360;2023-08-06T05:25:04;4.40;;;3.05;;
42616;SDS011;28250;52.320;0.360;2023-08-06T05:29:57;5.45;;;3.20;;
42616;SDS011;28250;52.320;0.360;2023-08-06T05:32:23;4.78;;;2.78;;
42616;SDS011;28250;52.320;0.360;2023-08-06T05:34:49;8.85;;;2.90;;
42616;SDS011;28250;52.320;0.360;2023-08-06T05:37:15;5.70;;;2.60;;
42616;SDS011;28250;52.320;0.360;2023-08-06T05:39:41;5.35;;;2.97;;
42616;SDS011;28250;52.320;0.360;2023-08-06T05:42:07;7.60;;;2.88;;
42616;SDS011;28250;52.320;0.360;2023-08-06T05:44:33;6.47;;;2.70;;
42616;SDS011;28250;52.320;0.360;2023-08-06T05:46:59;6.00;;;3.80;;
42616;SDS011;28250;52.320;0.360;2023-08-06T05:49:25;7.50;;;2.97;;
42616;SDS011;28250;52.320;0.360;2023-08-06T05:51:51;5.70;;;2.60;;
42616;SDS011;28250;52.320;0.360;2023-08-06T05:54:20;7.00;;;2.78;;
42616;SDS011;28250;52.320;0.360;2023-08-06T05:56:46;5.75;;;2.75;;
42616;SDS011;28250;52.320;0.360;2023-08-06T05:59:12;4.97;;;3.33;;
42616;SDS011;28250;52.320;0.360;2023-08-06T06:01:38;5.47;;;3.30;;
42616;SDS011;28250;52.320;0.360;2023-08-06T06:04:04;4.20;;;2.70;;
42616;SDS011;28250;52.320;0.360;2023-08-06T06:06:30;4.40;;;2.88;;
42616;SDS011;28250;52.320;0.360;2023-08-06T06:08:55;5.15;;;3.08;;
42616;SDS011;28250;52.320;0.360;2023-08-06T06:11:21;6.20;;;3.25;;
42616;SDS011;28250;52.320;0.360;2023-08-06T06:13:49;7.18;;;3.17;;
42616;SDS011;28250;52.320;0.360;2023-08-06T06:16:16;6.47;;;2.95;;
42616;SDS011;28250;52.320;0.360;2023-08-06T06:18:42;4.30;;;2.72;;
42616;SDS011;28250;52.320;0.360;2023-08-06T06:21:09;5.68;;;3.17;;
42616;SDS011;28250;52.320;0.360;2023-08-06T06:23:36;7.78;;;3.20;;
42616;SDS011;28250;52.320;0.360;2023-08-06T06:26:02;8.98;;;3.03;;
42616;SDS011;28250;52.320;0.360;2023-08-06T06:28:28;5.13;;;3.20;;
42616;SDS011;28250;52.320;0.360;2023-08-06T06:30:59;7.55;;;3.13;;
42616;SDS011;28250;52.320;0.360;2023-08-06T06:33:26;6.32;;;3.13;;
42616;SDS011;28250;52.320;0.360;2023-08-06T06:35:52;8.13;;;3.10;;
42616;SDS011;28250;52.320;0.360;2023-08-06T06:38:18;6.22;;;2.72;;
42616;SDS011;28250;52.320;0.360;2023-08-06T06:40:53;5.38;;;3.15;;
42616;SDS011;28250;52.320;0.360;2023-08-06T06:43:23;3.92;;;2.47;;
42616;SDS011;28250;52.320;0.360;2023-08-06T06:45:53;4.87;;;2.80;;
42616;SDS011;28250;52.320;0.360;2023-08-06T06:48:26;5.20;;;2.55;;
42616;SDS011;28250;52.320;0.360;2023-08-06T06:50:54;6.47;;;2.60;;
42616;SDS011;28250;52.320;0.360;2023-08-06T06:53:21;7.85;;;2.80;;
42616;SDS011;28250;52.320;0.360;2023-08-06T06:55:55;4.28;;;2.47;;
42616;SDS011;28250;52.320;0.360;2023-08-06T06:58:30;6.35;;;2.47;;
42616;SDS011;28250;52.320;0.360;2023-08-06T07:00:56;5.28;;;2.28;;
42616;SDS011;28250;52.320;0.360;2023-08-06T07:03:22;4.30;;;2.10;;
42616;SDS011;28250;52.320;0.360;2023-08-06T07:05:49;4.03;;;2.00;;
42616;SDS011;28250;52.320;0.360;2023-08-06T07:08:15;7.30;;;2.35;;
42616;SDS011;28250;52.320;0.360;2023-08-06T07:10:41;6.22;;;2.13;;
42616;SDS011;28250;52.320;0.360;2023-08-06T07:13:08;2.47;;;1.55;;
42616;SDS011;28250;52.320;0.360;2023-08-06T07:15:35;3.83;;;2.03;;
42616;SDS011;28250;52.320;0.360;2023-08-06T07:18:01;5.32;;;2.28;;
42616;SDS011;28250;52.320;0.360;2023-08-06T07:20:27;3.38;;;1.92;;
42616;SDS011;28250;52.320;0.360;2023-08-06T07:22:57;4.43;;;2.13;;
42616;SDS011;28250;52.320;0.360;2023-08-06T07:25:24;5.75;;;1.80;;
42616;SDS011;28250;52.320;0.360;2023-08-06T07:27:50;2.90;;;1.73;;
42616;SDS011;28250;52.320;0.360;2023-08-06T07:30:16;2.67;;;1.55;;
42616;SDS011;28250;52.320;0.360;2023-08-06T07:32:42;4.90;;;1.88;;
42616;SDS011;28250;52.320;0.360;2023-08-06T07:35:08;2.60;;;1.70;;
42616;SDS011;28250;52.320;0.360;2023-08-06T07:37:38;2.65;;;1.50;;
42616;SDS011;28250;52.320;0.360;2023-08-06T07:40:04;4.35;;;1.67;;
42616;SDS011;28250;52.320;0.360;2023-08-06T07:42:31;2.90;;;1.30;;
42616;SDS011;28250;52.320;0.360;2023-08-06T07:44:57;3.03;;;1.42;;
42616;SDS011;28250;52.320;0.360;2023-08-06T07:47:24;2.95;;;1.75;;
42616;SDS011;28250;52.320;0.360;2023-08-06T07:49:50;3.72;;;1.42;;
42616;SDS011;28250;52.320;0.360;2023-08-06T07:52:16;2.45;;;1.52;;
42616;SDS011;28250;52.320;0.360;2023-08-06T07:54:42;3.20;;;1.52;;
42616;SDS011;28250;52.320;0.360;2023-08-06T07:57:08;2.78;;;1.50;;
42616;SDS011;28250;52.320;0.360;2023-08-06T07:59:34;3.22;;;1.35;;
42616;SDS011;28250;52.320;0.360;2023-08-06T08:02:00;3.72;;;1.45;;
42616;SDS011;28250;52.320;0.360;2023-08-06T08:04:26;2.40;;;1.40;;
42616;SDS011;28250;52.320;0.360;2023-08-06T08:06:52;4.72;;;1.60;;
42616;SDS011;28250;52.320;0.360;2023-08-06T08:09:18;5.25;;;1.70;;
42616;SDS011;28250;52.320;0.360;2023-08-06T08:11:44;5.32;;;1.55;;
42616;SDS011;28250;52.320;0.360;2023-08-06T08:16:38;2.47;;;1.52;;
42616;SDS011;28250;52.320;0.360;2023-08-06T08:19:04;2.75;;;1.50;;
42616;SDS011;28250;52.320;0.360;2023-08-06T08:21:30;3.97;;;1.70;;
42616;SDS011;28250;52.320;0.360;2023-08-06T08:23:55;1.75;;;1.40;;
42616;SDS011;28250;52.320;0.360;2023-08-06T08:26:21;2.70;;;1.45;;
42616;SDS011;28250;52.320;0.360;2023-08-06T08:28:48;1.67;;;1.27;;
42616;SDS011;28250;52.320;0.360;2023-08-06T08:31:15;5.85;;;1.80;;
42616;SDS011;28250;52.320;0.360;2023-08-06T08:33:41;4.38;;;1.45;;
42616;SDS011;28250;52.320;0.360;2023-08-06T08:36:07;5.85;;;1.67;;
42616;SDS011;28250;52.320;0.360;2023-08-06T08:38:35;3.05;;;1.30;;
42616;SDS011;28250;52.320;0.360;2023-08-06T08:41:01;4.53;;;1.40;;
42616;SDS011;28250;52.320;0.360;2023-08-06T08:43:27;4.57;;;1.70;;
42616;SDS011;28250;52.320;0.360;2023-08-06T08:45:54;2.40;;;1.50;;
42616;SDS011;28250;52.320;0.360;2023-08-06T08:48:23;4.03;;;1.73;;
42616;SDS011;28250;52.320;0.360;2023-08-06T08:50:52;3.83;;;1.40;;
42616;SDS011;28250;52.320;0.360;2023-08-06T08:53:18;5.03;;;1.77;;
42616;SDS011;28250;52.320;0.360;2023-08-06T08:55:47;3.20;;;1.40;;
42616;SDS011;28250;52.320;0.360;2023-08-06T08:58:14;4.70;;;1.50;;
42616;SDS011;28250;52.320;0.360;2023-08-06T09:00:42;3.30;;;1.55;;
42616;SDS011;28250;52.320;0.360;2023-08-06T09:03:11;2.72;;;1.42;;
42616;SDS011;28250;52.320;0.360;2023-08-06T09:05:37;4.00;;;1.88;;
42616;SDS011;28250;52.320;0.360;2023-08-06T09:08:10;2.67;;;1.73;;
42616;SDS011;28250;52.320;0.360;2023-08-06T09:10:42;6.50;;;1.48;;
42616;SDS011;28250;52.320;0.360;2023-08-06T09:13:08;3.58;;;1.27;;
42616;SDS011;28250;52.320;0.360;2023-08-06T09:15:37;1.70;;;1.15;;
42616;SDS011;28250;52.320;0.360;2023-08-06T09:18:10;2.33;;;1.20;;
42616;SDS011;28250;52.320;0.360;2023-08-06T09:20:37;3.63;;;1.40;;
42616;SDS011;28250;52.320;0.360;2023-08-06T09:23:07;4.03;;;1.25;;
42616;SDS011;28250;52.320;0.360;2023-08-06T09:25:37;2.53;;;1.30;;
42616;SDS011;28250;52.320;0.360;2023-08-06T09:28:07;2.85;;;0.93;;
42616;SDS011;28250;52.320;0.360;2023-08-06T09:30:34;5.63;;;1.30;;
42616;SDS011;28250;52.320;0.360;2023-08-06T09:33:02;3.05;;;1.05;;
42616;SDS011;28250;52.320;0.360;2023-08-06T09:35:35;3.75;;;1.40;;
42616;SDS011;28250;52.320;0.360;2023-08-06T09:38:05;2.40;;;1.02;;
42616;SDS011;28250;52.320;0.360;2023-08-06T09:40:35;2.70;;;1.20;;
42616;SDS011;28250;52.320;0.360;2023-08-06T09:43:03;2.05;;;1.00;;
42616;SDS011;28250;52.320;0.360;2023-08-06T09:45:31;1.63;;;1.10;;
42616;SDS011;28250;52.320;0.360;2023-08-06T09:48:05;3.70;;;1.40;;
42616;SDS011;28250;52.320;0.360;2023-08-06T09:50:34;4.47;;;1.10;;
42616;SDS011;28250;52.320;0.360;2023-08-06T09:53:02;1.70;;;1.10;;
42616;SDS011;28250;52.320;0.360;2023-08-06T09:55:30;1.67;;;1.10;;
42616;SDS011;28250;52.320;0.360;2023-08-06T09:57:57;3.05;;;1.42;;
42616;SDS011;28250;52.320;0.360;2023-08-06T10:00:25;2.42;;;1.40;;
42616;SDS011;28250;52.320;0.360;2023-08-06T10:02:52;2.13;;;1.23;;
42616;SDS011;28250;52.320;0.360;2023-08-06T10:05:22;3.33;;;1.17;;
42616;SDS011;28250;52.320;0.360;2023-08-06T10:07:49;3.83;;;1.00;;
42616;SDS011;28250;52.320;0.360;2023-08-06T10:10:18;1.73;;;0.98;;
42616;SDS011;28250;52.320;0.360;2023-08-06T10:12:48;3.33;;;1.25;;
42616;SDS011;28250;52.320;0.360;2023-08-06T10:15:21;2.03;;;1.23;;
42616;SDS011;28250;52.320;0.360;2023-08-06T10:17:52;2.22;;;1.05;;
42616;SDS011;28250;52.320;0.360;2023-08-06T10:20:21;4.45;;;1.00;;
42616;SDS011;28250;52.320;0.360;2023-08-06T10:23:01;3.42;;;1.02;;
42616;SDS011;28250;52.320;0.360;2023-08-06T10:25:32;3.40;;;1.00;;
42616;SDS011;28250;52.320;0.360;2023-08-06T10:28:00;2.20;;;0.90;;
42616;SDS011;28250;52.320;0.360;2023-08-06T10:30:36;3.08;;;0.77;;
42616;SDS011;28250;52.320;0.360;2023-08-06T10:33:09;2.45;;;1.42;;
42616;SDS011;28250;52.320;0.360;2023-08-06T10:35:40;2.47;;;1.00;;
42616;SDS011;28250;52.320;0.360;2023-08-06T10:38:17;3.75;;;1.13;;
42616;SDS011;28250;52.320;0.360;2023-08-06T10:40:49;3.25;;;1.52;;
42616;SDS011;28250;52.320;0.360;2023-08-06T10:43:34;2.88;;;1.20;;
42616;SDS011;28250;52.320;0.360;2023-08-06T10:46:09;3.67;;;1.20;;
42616;SDS011;28250;52.320;0.360;2023-08-06T10:48:40;1.45;;;0.93;;
42616;SDS011;28250;52.320;0.360;2023-08-06T10:51:08;2.78;;;1.08;;
42616;SDS011;28250;52.320;0.360;2023-08-06T10:53:36;1.92;;;1.00;;
42616;SDS011;28250;52.320;0.360;2023-08-06T10:58:42;1.75;;;1.00;;
42616;SDS011;28250;52.320;0.360;2023-08-06T11:01:10;3.33;;;1.15;;
42616;SDS011;28250;52.320;0.360;2023-08-06T11:03:37;2.08;;;1.15;;
42616;SDS011;28250;52.320;0.360;2023-08-06T11:06:06;1.60;;;1.10;;
42616;SDS011;28250;52.320;0.360;2023-08-06T11:08:33;2.45;;;0.90;;
42616;SDS011;28250;52.320;0.360;2023-08-06T11:11:09;3.55;;;1.20;;
42616;SDS011;28250;52.320;0.360;2023-08-06T11:16:06;2.83;;;0.90;;
42616;SDS011;28250;52.320;0.360;2023-08-06T11:18:33;2.15;;;0.90;;
42616;SDS011;28250;52.320;0.360;2023-08-06T11:20:59;1.55;;;1.00;;
42616;SDS011;28250;52.320;0.360;2023-08-06T11:23:29;2.33;;;0.90;;
42616;SDS011;28250;52.320;0.360;2023-08-06T11:25:56;2.00;;;0.80;;
42616;SDS011;28250;52.320;0.360;2023-08-06T11:28:23;1.13;;;0.75;;
42616;SDS011;28250;52.320;0.360;2023-08-06T11:30:50;1.75;;;0.75;;
42616;SDS011;28250;52.320;0.360;2023-08-06T11:33:22;2.80;;;1.23;;
42616;SDS011;28250;52.320;0.360;2023-08-06T11:35:53;4.30;;;1.00;;
42616;SDS011;28250;52.320;0.360;2023-08-06T11:38:24;2.05;;;0.90;;
42616;SDS011;28250;52.320;0.360;2023-08-06T11:40:52;0.82;;;0.70;;
42616;SDS011;28250;52.320;0.360;2023-08-06T11:43:19;1.20;;;1.10;;
42616;SDS011;28250;52.320;0.360;2023-08-06T11:45:48;2.13;;;0.80;;
42616;SDS011;28250;52.320;0.360;2023-08-06T11:48:15;1.17;;;0.60;;
42616;SDS011;28250;52.320;0.360;2023-08-06T11:50:43;1.67;;;1.00;;
42616;SDS011;28250;52.320;0.360;2023-08-06T11:53:11;1.48;;;0.70;;
42616;SDS011;28250;52.320;0.360;2023-08-06T11:55:41;1.02;;;0.68;;
42616;SDS011;28250;52.320;0.360;2023-08-06T11:58:09;3.28;;;0.80;;
42616;SDS011;28250;52.320;0.360;2023-08-06T12:00:37;2.63;;;0.75;;
42616;SDS011;28250;52.320;0.360;2023-08-06T12:03:04;1.13;;;0.70;;
42616;SDS011;28250;52.320;0.360;2023-08-06T12:05:30;2.05;;;0.70;;
42616;SDS011;28250;52.320;0.360;2023-08-06T12:08:01;0.60;;;0.60;;
42616;SDS011;28250;52.320;0.360;2023-08-06T12:10:31;1.83;;;0.77;;
42616;SDS011;28250;52.320;0.360;2023-08-06T12:12:57;1.77;;;0.60;;
42616;SDS011;28250;52.320;0.360;2023-08-06T12:15:24;1.58;;;0.60;;
42616;SDS011;28250;52.320;0.360;2023-08-06T12:17:50;1.88;;;0.70;;
42616;SDS011;28250;52.320;0.360;2023-08-06T12:20:16;3.58;;;0.82;;
42616;SDS011;28250;52.320;0.360;2023-08-06T12:22:42;1.08;;;0.70;;
42616;SDS011;28250;52.320;0.360;2023-08-06T12:25:09;3.83;;;0.93;;
42616;SDS011;28250;52.320;0.360;2023-08-06T12:27:38;2.33;;;0.80;;
42616;SDS011;28250;52.320;0.360;2023-08-06T12:30:08;2.42;;;1.02;;
42616;SDS011;28250;52.320;0.360;2023-08-06T12:32:36;2.25;;;0.70;;
42616;SDS011;28250;52.320;0.360;2023-08-06T12:35:02;1.38;;;0.60;;
42616;SDS011;28250;52.320;0.360;2023-08-06T12:37:31;0.73;;;0.50;;
42616;SDS011;28250;52.320;0.360;2023-08-06T12:39:57;1.48;;;0.70;;
42616;SDS011;28250;52.320;0.360;2023-08-06T12:42:23;3.53;;;0.90;;
42616;SDS011;28250;52.320;0.360;2023-08-06T12:44:49;3.73;;;0.80;;
42616;SDS011;28250;52.320;0.360;2023-08-06T12:47:16;1.85;;;0.73;;
42616;SDS011;28250;52.320;0.360;2023-08-06T12:49:43;2.67;;;1.35;;
42616;SDS011;28250;52.320;0.360;2023-08-06T12:52:09;1.58;;;0.73;;
42616;SDS011;28250;52.320;0.360;2023-08-06T12:54:35;1.13;;;0.73;;
42616;SDS011;28250;52.320;0.360;2023-08-06T12:57:04;3.22;;;0.73;;
42616;SDS011;28250;52.320;0.360;2023-08-06T12:59:31;3.60;;;0.88;;
42616;SDS011;28250;52.320;0.360;2023-08-06T13:04:25;1.60;;;0.68;;
42616;SDS011;28250;52.320;0.360;2023-08-06T13:06:51;3.67;;;1.25;;
42616;SDS011;28250;52.320;0.360;2023-08-06T13:09:17;2.20;;;1.08;;
42616;SDS011;28250;52.320;0.360;2023-08-06T13:11:44;1.73;;;1.05;;
42616;SDS011;28250;52.320;0.360;2023-08-06T13:19:06;1.08;;;0.98;;
42616;SDS011;28250;52.320;0.360;2023-08-06T13:24:15;1.02;;;0.73;;
42616;SDS011;28250;52.320;0.360;2023-08-06T13:26:41;1.80;;;0.80;;
42616;SDS011;28250;52.320;0.360;2023-08-06T13:29:07;1.77;;;0.85;;
42616;SDS011;28250;52.320;0.360;2023-08-06T13:31:33;0.75;;;0.68;;
42616;SDS011;28250;52.320;0.360;2023-08-06T13:33:59;1.60;;;0.85;;
42616;SDS011;28250;52.320;0.360;2023-08-06T13:36:28;1.73;;;0.93;;
42616;SDS011;28250;52.320;0.360;2023-08-06T13:38:55;1.15;;;0.70;;
42616;SDS011;28250;52.320;0.360;2023-08-06T13:41:22;1.38;;;0.82;;
42616;SDS011;28250;52.320;0.360;2023-08-06T13:43:48;1.83;;;0.98;;
42616;SDS011;28250;52.320;0.360;2023-08-06T13:46:15;1.17;;;0.95;;
42616;SDS011;28250;52.320;0.360;2023-08-06T13:48:44;3.13;;;1.10;;
42616;SDS011;28250;52.320;0.360;2023-08-06T13:51:13;1.10;;;0.90;;
42616;SDS011;28250;52.320;0.360;2023-08-06T13:53:39;0.70;;;0.60;;
42616;SDS011;28250;52.320;0.360;2023-08-06T13:56:06;0.85;;;0.70;;
42616;SDS011;28250;52.320;0.360;2023-08-06T13:58:37;0.70;;;0.60;;
42616;SDS011;28250;52.320;0.360;2023-08-06T14:01:04;0.90;;;0.68;;
42616;SDS011;28250;52.320;0.360;2023-08-06T14:03:30;0.70;;;0.70;;
42616;SDS011;28250;52.320;0.360;2023-08-06T14:05:56;1.60;;;0.95;;
42616;SDS011;28250;52.320;0.360;2023-08-06T14:08:22;6.05;;;1.50;;
42616;SDS011;28250;52.320;0.360;2023-08-06T14:10:50;2.15;;;0.85;;
42616;SDS011;28250;52.320;0.360;2023-08-06T14:13:17;1.80;;;0.70;;
42616;SDS011;28250;52.320;0.360;2023-08-06T14:15:43;0.85;;;0.73;;
42616;SDS011;28250;52.320;0.360;2023-08-06T14:18:12;1.00;;;0.90;;
42616;SDS011;28250;52.320;0.360;2023-08-06T14:20:39;2.47;;;1.20;;
42616;SDS011;28250;52.320;0.360;2023-08-06T14:23:06;1.13;;;0.77;;
42616;SDS011;28250;52.320;0.360;2023-08-06T14:25:32;2.08;;;0.80;;
42616;SDS011;28250;52.320;0.360;2023-08-06T14:27:58;4.55;;;1.10;;
42616;SDS011;28250;52.320;0.360;2023-08-06T14:30:24;0.80;;;0.70;;
42616;SDS011;28250;52.320;0.360;2023-08-06T14:32:50;1.73;;;0.70;;
42616;SDS011;28250;52.320;0.360;2023-08-06T14:35:16;1.30;;;0.80;;
42616;SDS011;28250;52.320;0.360;2023-08-06T14:37:42;2.13;;;0.88;;
42616;SDS011;28250;52.320;0.360;2023-08-06T14:40:10;3.05;;;0.80;;
42616;SDS011;28250;52.320;0.360;2023-08-06T14:42:37;1.83;;;0.90;;
42616;SDS011;28250;52.320;0.360;2023-08-06T14:45:03;2.15;;;1.05;;
42616;SDS011;28250;52.320;0.360;2023-08-06T14:47:30;2.90;;;0.82;;
42616;SDS011;28250;52.320;0.360;2023-08-06T14:49:56;2.30;;;1.00;;
42616;SDS011;28250;52.320;0.360;2023-08-06T14:52:22;2.55;;;1.10;;
42616;SDS011;28250;52.320;0.360;2023-08-06T14:54:48;3.83;;;1.80;;
42616;SDS011;28250;52.320;0.360;2023-08-06T14:57:17;2.05;;;1.30;;
42616;SDS011;28250;52.320;0.360;2023-08-06T14:59:43;2.53;;;1.43;;
42616;SDS011;28250;52.320;0.360;2023-08-06T15:02:09;3.45;;;1.50;;
42616;SDS011;28250;52.320;0.360;2023-08-06T15:04:35;3.38;;;1.70;;
42616;SDS011;28250;52.320;0.360;2023-08-06T15:07:02;3.15;;;1.77;;
42616;SDS011;28250;52.320;0.360;2023-08-06T15:09:28;2.33;;;1.55;;
42616;SDS011;28250;52.320;0.360;2023-08-06T15:11:54;1.83;;;1.10;;
42616;SDS011;28250;52.320;0.360;2023-08-06T15:14:20;1.85;;;1.20;;
42616;SDS011;28250;52.320;0.360;2023-08-06T15:16:46;2.28;;;1.02;;
42616;SDS011;28250;52.320;0.360;2023-08-06T15:19:13;1.63;;;0.95;;